createdAt,value
2022-12-20T00:00:06.804Z,8.40
2022-12-20T00:02:34.004Z,8.50
2022-12-20T00:05:01.025Z,8.40
2022-12-20T00:07:27.818Z,8.30
2022-12-20T00:09:54.778Z,8.30
2022-12-20T00:12:21.656Z,8.10
2022-12-20T00:14:48.517Z,8.10
2022-12-20T00:17:15.546Z,8.10
2022-12-20T00:19:44.719Z,8.20
2022-12-20T00:22:11.827Z,8.20
2022-12-20T00:24:38.753Z,8.20
2022-12-20T00:27:05.697Z,8.30
2022-12-20T00:29:32.674Z,8.30
2022-12-20T00:31:59.543Z,8.30
2022-12-20T00:34:26.570Z,8.30
2022-12-20T00:36:53.435Z,8.20
2022-12-20T00:39:20.294Z,8.20
2022-12-20T00:41:47.175Z,8.20
2022-12-20T00:44:14.138Z,8.30
2022-12-20T00:46:41.015Z,8.30
2022-12-20T00:49:09.775Z,8.40
2022-12-20T00:51:36.643Z,8.40
2022-12-20T00:54:03.571Z,8.40
2022-12-20T00:56:30.646Z,8.40
2022-12-20T00:58:59.560Z,8.50
2022-12-20T01:01:30.619Z,8.40
2022-12-20T01:03:58.407Z,8.40
2022-12-20T01:06:25.478Z,8.50
2022-12-20T01:08:53.935Z,8.60
2022-12-20T01:11:23.077Z,8.60
2022-12-20T01:13:52.789Z,8.70
2022-12-20T01:16:24.237Z,8.70
2022-12-20T01:18:53.195Z,8.70
2022-12-20T01:21:22.366Z,8.70
2022-12-20T01:23:49.471Z,8.70
2022-12-20T01:26:19.377Z,8.80
2022-12-20T01:28:47.952Z,8.80
2022-12-20T01:31:17.243Z,8.90
2022-12-20T01:33:45.381Z,8.80
2022-12-20T01:36:18.993Z,8.80
2022-12-20T01:38:46.413Z,8.80
2022-12-20T01:41:21.573Z,8.80
2022-12-20T01:43:57.608Z,8.80
2022-12-20T01:46:27.932Z,8.70
2022-12-20T01:49:04.455Z,8.70
2022-12-20T01:51:33.685Z,8.60
2022-12-20T01:54:38.129Z,8.60
2022-12-20T01:57:08.568Z,8.50
2022-12-20T01:59:39.050Z,8.60
2022-12-20T02:02:09.811Z,8.60
2022-12-20T02:04:37.172Z,8.60
2022-12-20T02:07:05.921Z,8.60
2022-12-20T02:09:35.292Z,8.60
2022-12-20T02:12:21.669Z,8.60
2022-12-20T02:15:09.949Z,8.60
2022-12-20T02:18:07.744Z,8.70
2022-12-20T02:21:10.529Z,8.60
2022-12-20T02:23:58.569Z,8.60
2022-12-20T02:26:56.423Z,8.60
2022-12-20T02:30:01.881Z,8.60
2022-12-20T02:32:38.674Z,8.60
2022-12-20T02:35:08.759Z,8.60
2022-12-20T02:37:36.367Z,8.60
2022-12-20T02:40:05.745Z,8.70
2022-12-20T02:42:34.420Z,8.70
2022-12-20T02:45:16.747Z,8.70
2022-12-20T02:47:50.144Z,8.70
2022-12-20T02:50:23.620Z,8.60
2022-12-20T02:52:51.999Z,8.50
2022-12-20T02:55:24.034Z,8.50
2022-12-20T02:58:01.620Z,8.40
2022-12-20T03:00:37.809Z,8.30
2022-12-20T03:03:24.989Z,8.40
2022-12-20T03:05:55.357Z,8.50
2022-12-20T03:08:24.000Z,8.50
2022-12-20T03:10:53.263Z,8.50
2022-12-20T03:13:21.392Z,8.40
2022-12-20T03:16:32.233Z,8.40
2022-12-20T03:18:59.151Z,8.30
2022-12-20T03:21:26.038Z,8.30
2022-12-20T03:23:52.953Z,8.20
2022-12-20T03:26:19.817Z,8.40
2022-12-20T03:28:53.482Z,8.40
2022-12-20T03:31:23.439Z,8.40
2022-12-20T03:33:54.447Z,8.50
2022-12-20T03:36:23.897Z,8.50
2022-12-20T03:38:56.241Z,8.50
2022-12-20T03:41:26.198Z,8.60
2022-12-20T03:43:53.331Z,8.60
2022-12-20T03:46:21.663Z,8.60
2022-12-20T03:48:48.572Z,8.50
2022-12-20T03:51:16.148Z,8.50
2022-12-20T03:53:43.293Z,8.50
2022-12-20T03:56:11.785Z,8.50
2022-12-20T03:58:39.925Z,8.50
2022-12-20T04:01:27.086Z,8.40
2022-12-20T04:03:56.456Z,8.40
2022-12-20T04:06:24.086Z,8.50
2022-12-20T04:08:51.771Z,8.50
2022-12-20T04:11:26.149Z,8.40
2022-12-20T04:13:59.967Z,8.40
2022-12-20T04:16:29.466Z,8.40
2022-12-20T04:18:56.886Z,8.40
2022-12-20T04:21:26.129Z,8.30
2022-12-20T04:23:56.144Z,8.30
2022-12-20T04:26:25.861Z,8.40
2022-12-20T04:28:53.020Z,8.40
2022-12-20T04:31:24.203Z,8.40
2022-12-20T04:33:52.965Z,8.30
2022-12-20T04:36:21.078Z,8.30
2022-12-20T04:38:50.309Z,8.40
2022-12-20T04:41:24.049Z,8.40
2022-12-20T04:43:59.125Z,8.40
2022-12-20T04:46:34.407Z,8.30
2022-12-20T04:49:02.723Z,8.20
2022-12-20T04:51:32.285Z,8.20
2022-12-20T04:53:59.380Z,8.10
2022-12-20T04:56:39.230Z,8.00
2022-12-20T04:59:12.623Z,8.00
2022-12-20T05:01:42.222Z,7.90
2022-12-20T05:04:10.358Z,7.80
2022-12-20T05:06:38.183Z,7.80
2022-12-20T05:09:05.811Z,7.80
2022-12-20T05:11:34.047Z,7.80
2022-12-20T05:14:03.179Z,7.80
2022-12-20T05:16:30.275Z,7.80
2022-12-20T05:18:59.020Z,7.90
2022-12-20T05:21:44.845Z,8.00
2022-12-20T05:24:31.886Z,8.00
2022-12-20T05:27:15.668Z,8.00
2022-12-20T05:29:42.997Z,8.00
2022-12-20T05:32:10.450Z,8.10
2022-12-20T05:34:40.788Z,8.00
2022-12-20T05:37:07.717Z,8.00
2022-12-20T05:39:37.185Z,8.00
2022-12-20T05:42:09.659Z,8.00
2022-12-20T05:44:36.891Z,8.00
2022-12-20T05:47:04.070Z,8.00
2022-12-20T05:49:34.628Z,8.00
2022-12-20T05:52:04.226Z,8.00
2022-12-20T05:54:31.050Z,8.00
2022-12-20T05:57:13.138Z,7.90
2022-12-20T05:59:41.845Z,8.00
2022-12-20T06:02:16.029Z,7.90
2022-12-20T06:04:43.980Z,7.80
2022-12-20T06:07:16.395Z,7.80
2022-12-20T06:09:47.056Z,7.70
2022-12-20T06:12:17.211Z,7.70
2022-12-20T06:14:46.068Z,7.60
2022-12-20T06:17:13.846Z,7.60
2022-12-20T06:19:41.667Z,7.60
2022-12-20T06:22:10.378Z,7.50
2022-12-20T06:24:50.677Z,7.50
2022-12-20T06:27:23.185Z,7.60
2022-12-20T06:30:05.681Z,7.50
2022-12-20T06:32:44.076Z,7.50
2022-12-20T06:35:11.858Z,7.60
2022-12-20T06:37:40.645Z,7.60
2022-12-20T06:40:13.125Z,7.70
2022-12-20T06:42:40.268Z,7.60
2022-12-20T06:45:08.403Z,7.70
2022-12-20T06:47:37.181Z,7.70
2022-12-20T06:50:05.747Z,7.70
2022-12-20T06:52:32.916Z,7.80
2022-12-20T06:54:59.852Z,7.80
2022-12-20T06:57:27.052Z,7.70
2022-12-20T06:59:54.973Z,7.80
2022-12-20T07:02:21.971Z,7.70
2022-12-20T07:04:48.949Z,7.70
2022-12-20T07:07:17.211Z,7.70
2022-12-20T07:09:44.169Z,7.80
2022-12-20T07:12:11.420Z,7.70
2022-12-20T07:14:38.311Z,7.70
2022-12-20T07:17:07.531Z,7.70
2022-12-20T07:19:36.406Z,7.80
2022-12-20T07:22:05.621Z,7.80
2022-12-20T07:24:33.145Z,7.80
2022-12-20T07:27:00.445Z,7.90
2022-12-20T07:29:27.876Z,7.90
2022-12-20T07:31:54.845Z,7.90
2022-12-20T07:34:22.072Z,7.90
2022-12-20T07:36:49.008Z,7.90
2022-12-20T07:39:16.122Z,8.00
2022-12-20T07:41:43.009Z,8.10
2022-12-20T07:44:15.718Z,8.20
2022-12-20T07:46:42.817Z,8.20
2022-12-20T07:49:09.752Z,8.20
2022-12-20T07:51:47.301Z,8.30
2022-12-20T07:54:24.256Z,8.40
2022-12-20T07:56:57.018Z,8.40
2022-12-20T07:59:29.245Z,8.50
2022-12-20T08:02:00.905Z,8.50
2022-12-20T08:04:31.803Z,8.60
2022-12-20T08:07:01.249Z,8.70
2022-12-20T08:09:36.473Z,8.70
2022-12-20T08:12:03.671Z,8.70
2022-12-20T08:14:31.584Z,8.70
2022-12-20T08:16:58.501Z,8.70
2022-12-20T08:19:31.835Z,8.60
2022-12-20T08:21:59.311Z,8.60
2022-12-20T08:24:26.206Z,8.60
2022-12-20T08:26:53.056Z,8.60
2022-12-20T08:29:19.905Z,8.60
2022-12-20T08:31:50.429Z,8.70
2022-12-20T08:34:18.643Z,8.70
2022-12-20T08:36:45.479Z,8.70
2022-12-20T08:39:12.401Z,8.70
2022-12-20T08:41:39.420Z,8.70
2022-12-20T08:44:06.827Z,8.80
2022-12-20T08:46:34.116Z,8.80
2022-12-20T08:49:01.061Z,8.90
2022-12-20T08:51:29.321Z,8.80
2022-12-20T08:53:56.398Z,8.80
2022-12-20T08:56:23.352Z,8.80
2022-12-20T08:58:50.417Z,8.90
2022-12-20T09:01:20.156Z,8.90
2022-12-20T09:03:47.710Z,9.00
2022-12-20T09:06:20.215Z,9.00
2022-12-20T09:08:48.054Z,9.10
2022-12-20T09:11:20.963Z,9.20
2022-12-20T09:13:50.361Z,9.20
2022-12-20T09:16:20.115Z,9.40
2022-12-20T09:19:00.693Z,9.40
2022-12-20T09:21:29.931Z,9.40
2022-12-20T09:23:57.962Z,9.40
2022-12-20T09:26:25.870Z,9.40
2022-12-20T09:28:52.828Z,9.40
2022-12-20T09:31:23.497Z,9.50
2022-12-20T09:33:50.330Z,9.50
2022-12-20T09:36:18.585Z,9.50
2022-12-20T09:38:46.830Z,9.50
2022-12-20T09:41:23.090Z,9.50
2022-12-20T09:43:50.265Z,9.60
2022-12-20T09:46:17.222Z,9.70
2022-12-20T09:48:44.674Z,9.80
2022-12-20T09:51:20.821Z,10.00
2022-12-20T09:53:56.531Z,10.10
2022-12-20T09:56:41.989Z,10.10
2022-12-20T09:59:13.420Z,10.20
2022-12-20T10:01:43.078Z,10.30
2022-12-20T10:04:27.267Z,10.30
2022-12-20T10:07:13.282Z,10.40
2022-12-20T10:09:51.927Z,10.40
2022-12-20T10:12:18.748Z,10.30
2022-12-20T10:14:50.452Z,10.40
2022-12-20T10:17:37.522Z,10.40
2022-12-20T10:20:08.535Z,10.40
2022-12-20T10:22:42.364Z,10.50
2022-12-20T10:25:14.605Z,10.60
2022-12-20T10:27:42.472Z,10.60
2022-12-20T10:30:16.664Z,10.60
2022-12-20T10:32:47.082Z,10.60
2022-12-20T10:35:16.765Z,10.70
2022-12-20T10:38:08.763Z,10.80
2022-12-20T10:41:10.339Z,11.00
2022-12-20T10:43:25.141Z,11.10
2022-12-20T10:45:59.923Z,11.10
2022-12-20T10:48:34.424Z,11.20
2022-12-20T10:51:02.962Z,11.30
2022-12-20T10:53:30.368Z,11.30
2022-12-20T10:56:09.410Z,11.20
2022-12-20T10:58:37.018Z,11.20
2022-12-20T11:01:15.139Z,11.20
2022-12-20T11:03:52.828Z,11.20
2022-12-20T11:06:21.124Z,11.20
2022-12-20T11:08:53.839Z,11.20
2022-12-20T11:11:26.587Z,11.10
2022-12-20T11:13:54.151Z,11.10
2022-12-20T11:16:22.957Z,11.10
2022-12-20T11:19:10.159Z,11.00
2022-12-20T11:21:47.872Z,10.90
2022-12-20T11:24:22.998Z,10.80
2022-12-20T11:27:15.883Z,10.90
2022-12-20T11:29:42.788Z,11.00
2022-12-20T11:32:21.377Z,11.00
2022-12-20T11:35:01.660Z,11.20
2022-12-20T11:37:30.728Z,11.20
2022-12-20T11:39:57.497Z,11.20
2022-12-20T11:42:43.071Z,11.20
2022-12-20T11:45:13.690Z,11.30
2022-12-20T11:47:54.054Z,11.30
2022-12-20T11:50:20.878Z,11.20
2022-12-20T11:52:51.893Z,11.20
2022-12-20T11:55:23.266Z,11.10
2022-12-20T11:58:20.386Z,11.10
2022-12-20T12:00:56.819Z,11.20
2022-12-20T12:03:28.413Z,11.20
2022-12-20T12:05:58.317Z,11.30
2022-12-20T12:08:31.408Z,11.30
2022-12-20T12:11:00.432Z,11.20
2022-12-20T12:13:28.629Z,11.30
2022-12-20T12:15:56.080Z,11.20
2022-12-20T12:18:28.372Z,11.20
2022-12-20T12:21:02.179Z,11.20
2022-12-20T12:23:35.433Z,11.20
2022-12-20T12:26:24.274Z,11.30
2022-12-20T12:29:09.203Z,11.30
2022-12-20T12:31:43.128Z,11.40
2022-12-20T12:34:16.101Z,11.50
2022-12-20T12:37:01.673Z,11.60
2022-12-20T12:39:31.595Z,11.70
2022-12-20T12:42:07.318Z,11.70
2022-12-20T12:44:40.830Z,11.70
2022-12-20T12:47:17.207Z,11.70
2022-12-20T12:49:47.676Z,11.60
2022-12-20T12:52:35.906Z,11.50
2022-12-20T12:55:03.495Z,11.30
2022-12-20T12:57:50.216Z,11.20
2022-12-20T13:00:39.843Z,11.20
2022-12-20T13:03:15.317Z,11.00
2022-12-20T13:05:42.415Z,10.90
2022-12-20T13:08:16.503Z,10.90
2022-12-20T13:10:43.228Z,10.80
2022-12-20T13:13:14.248Z,10.90
2022-12-20T13:15:41.025Z,10.80
2022-12-20T13:18:10.867Z,10.80
2022-12-20T13:20:37.790Z,10.70
2022-12-20T13:23:11.609Z,10.70
2022-12-20T13:25:42.748Z,10.60
2022-12-20T13:28:16.645Z,10.60
2022-12-20T13:30:44.511Z,10.60
2022-12-20T13:33:34.976Z,10.50
2022-12-20T13:36:03.440Z,10.40
2022-12-20T13:38:30.134Z,10.30
2022-12-20T13:40:58.929Z,10.30
2022-12-20T13:43:28.078Z,10.20
2022-12-20T13:45:57.458Z,10.20
2022-12-20T13:48:33.692Z,10.30
2022-12-20T13:51:00.619Z,10.30
2022-12-20T13:53:27.926Z,10.30
2022-12-20T13:55:55.155Z,10.20
2022-12-20T13:58:24.528Z,10.30
2022-12-20T14:00:52.867Z,10.20
2022-12-20T14:03:27.681Z,10.10
2022-12-20T14:05:57.413Z,10.10
2022-12-20T14:08:26.331Z,10.10
2022-12-20T14:10:53.344Z,10.00
2022-12-20T14:13:20.067Z,10.00
2022-12-20T14:15:47.523Z,10.10
2022-12-20T14:18:27.456Z,10.00
2022-12-20T14:20:57.969Z,10.00
2022-12-20T14:23:26.572Z,10.00
2022-12-20T14:25:57.018Z,10.00
2022-12-20T14:28:36.722Z,9.90
2022-12-20T14:31:04.244Z,9.90
2022-12-20T14:33:38.727Z,9.80
2022-12-20T14:36:19.955Z,9.80
2022-12-20T14:38:50.656Z,9.90
2022-12-20T14:41:29.723Z,9.90
2022-12-20T14:43:58.120Z,9.90
2022-12-20T14:46:24.912Z,9.90
2022-12-20T14:49:10.758Z,10.00
2022-12-20T14:51:37.883Z,10.00
2022-12-20T14:54:04.638Z,10.00
2022-12-20T14:56:33.560Z,10.10
2022-12-20T14:59:26.605Z,10.10
2022-12-20T15:01:53.910Z,10.10
2022-12-20T15:04:38.894Z,10.20
2022-12-20T15:07:05.672Z,10.20
2022-12-20T15:09:32.412Z,10.20
2022-12-20T15:11:59.228Z,10.20
2022-12-20T15:14:35.122Z,10.10
2022-12-20T15:17:03.705Z,10.10
2022-12-20T15:19:35.193Z,10.10
2022-12-20T15:22:04.348Z,10.10
2022-12-20T15:24:32.138Z,10.20
2022-12-20T15:26:58.861Z,10.20
2022-12-20T15:29:26.653Z,10.20
2022-12-20T15:32:00.838Z,10.30
2022-12-20T15:34:29.240Z,10.40
2022-12-20T15:36:56.799Z,10.60
2022-12-20T15:39:23.561Z,10.70
2022-12-20T15:41:50.584Z,10.70
2022-12-20T15:44:24.574Z,10.70
2022-12-20T15:46:52.136Z,10.70
2022-12-20T15:49:22.902Z,10.60
2022-12-20T15:51:50.266Z,10.60
2022-12-20T15:54:28.060Z,10.50
2022-12-20T15:56:55.957Z,10.50
2022-12-20T15:59:57.467Z,10.40
2022-12-20T16:02:17.266Z,10.30
2022-12-20T16:04:44.689Z,10.30
2022-12-20T16:07:12.532Z,10.10
2022-12-20T16:09:39.634Z,10.10
2022-12-20T16:12:13.374Z,10.00
2022-12-20T16:14:40.118Z,9.90
2022-12-20T16:17:08.142Z,10.00
2022-12-20T16:19:34.919Z,9.90
2022-12-20T16:22:01.761Z,9.90
2022-12-20T16:24:28.430Z,9.90
2022-12-20T16:26:55.201Z,9.90
2022-12-20T16:29:22.587Z,9.80
2022-12-20T16:31:49.368Z,9.80
2022-12-20T16:34:16.914Z,9.80
2022-12-20T16:36:44.050Z,9.80
2022-12-20T16:39:10.797Z,9.70
2022-12-20T16:41:39.031Z,9.70
2022-12-20T16:44:06.079Z,9.70
2022-12-20T16:46:33.405Z,9.70
2022-12-20T16:49:00.548Z,9.70
2022-12-20T16:51:27.232Z,9.70
2022-12-20T16:54:21.082Z,9.70
2022-12-20T16:56:51.051Z,9.70
2022-12-20T16:59:20.861Z,9.70
2022-12-20T17:01:49.255Z,9.70
2022-12-20T17:04:17.574Z,9.70
2022-12-20T17:06:44.810Z,9.60
2022-12-20T17:09:11.704Z,9.70
2022-12-20T17:11:38.871Z,9.70
2022-12-20T17:14:12.102Z,9.60
2022-12-20T17:16:39.932Z,9.60
2022-12-20T17:19:06.733Z,9.60
2022-12-20T17:24:20.867Z,9.60
2022-12-20T17:26:47.912Z,9.60
2022-12-20T17:29:15.309Z,9.60
2022-12-20T17:31:43.773Z,9.60
2022-12-20T17:34:19.532Z,9.60
2022-12-20T17:36:46.942Z,9.50
2022-12-20T17:39:13.761Z,9.60
2022-12-20T17:41:42.587Z,9.60
2022-12-20T17:44:16.546Z,9.60
2022-12-20T17:46:43.340Z,9.60
2022-12-20T17:49:10.806Z,9.60
2022-12-20T17:51:37.522Z,9.60
2022-12-20T17:54:04.417Z,9.60
2022-12-20T17:56:32.715Z,9.60
2022-12-20T17:59:00.355Z,9.70
2022-12-20T18:01:31.418Z,9.60
2022-12-20T18:04:04.442Z,9.60
2022-12-20T18:06:32.970Z,9.60
2022-12-20T18:09:00.423Z,9.60
2022-12-20T18:11:27.912Z,9.60
2022-12-20T18:13:56.169Z,9.60
2022-12-20T18:16:25.152Z,9.60
2022-12-20T18:18:53.491Z,9.50
2022-12-20T18:21:21.009Z,9.50
2022-12-20T18:23:48.236Z,9.50
2022-12-20T18:26:16.884Z,9.40
2022-12-20T18:28:45.005Z,9.50
2022-12-20T18:31:12.996Z,9.40
2022-12-20T18:33:39.847Z,9.40
2022-12-20T18:36:08.240Z,9.30
2022-12-20T18:38:35.929Z,9.30
2022-12-20T18:41:03.933Z,9.30
2022-12-20T18:43:31.548Z,9.10
2022-12-20T18:46:05.432Z,9.00
2022-12-20T18:48:32.630Z,9.00
2022-12-20T18:51:19.176Z,8.90
2022-12-20T18:53:47.357Z,8.90
2022-12-20T18:56:15.482Z,8.80
2022-12-20T18:58:43.036Z,8.80
2022-12-20T19:01:17.291Z,8.80
2022-12-20T19:03:44.551Z,8.80
2022-12-20T19:06:12.005Z,8.80
2022-12-20T19:08:39.044Z,8.80
2022-12-20T19:11:06.808Z,8.80
2022-12-20T19:13:33.561Z,8.70
2022-12-20T19:16:02.207Z,8.80
2022-12-20T19:18:29.099Z,8.70
2022-12-20T19:20:56.270Z,8.70
2022-12-20T19:23:22.985Z,8.70
2022-12-20T19:25:49.797Z,8.70
2022-12-20T19:28:16.534Z,8.70
2022-12-20T19:30:43.352Z,8.70
2022-12-20T19:33:10.283Z,8.70
2022-12-20T19:38:23.869Z,8.50
2022-12-20T19:40:52.037Z,8.60
2022-12-20T19:43:18.827Z,8.60
2022-12-20T19:45:45.636Z,8.60
2022-12-20T19:48:12.391Z,8.70
2022-12-20T19:50:39.068Z,8.70
2022-12-20T19:53:05.852Z,8.60
2022-12-20T19:55:33.062Z,8.60
2022-12-20T19:57:59.732Z,8.70
2022-12-20T20:00:27.441Z,8.60
2022-12-20T20:02:54.971Z,8.70
2022-12-20T20:05:21.976Z,8.60
2022-12-20T20:07:50.798Z,8.60
2022-12-20T20:10:17.803Z,8.60
2022-12-20T20:12:45.000Z,8.60
2022-12-20T20:15:11.762Z,8.60
2022-12-20T20:17:38.528Z,8.60
2022-12-20T20:20:05.598Z,8.50
2022-12-20T20:22:32.321Z,8.60
2022-12-20T20:24:59.069Z,8.60
2022-12-20T20:27:25.830Z,8.60
2022-12-20T20:29:52.630Z,8.60
2022-12-20T20:32:19.674Z,8.60
2022-12-20T20:34:46.429Z,8.60
2022-12-20T20:37:13.183Z,8.60
2022-12-20T20:39:39.877Z,8.60
2022-12-20T20:42:06.760Z,8.50
2022-12-20T20:44:33.578Z,8.60
2022-12-20T20:47:00.309Z,8.60
2022-12-20T20:49:27.755Z,8.60
2022-12-20T20:51:54.516Z,8.60
2022-12-20T20:54:21.248Z,8.60
2022-12-20T20:56:48.053Z,8.60
2022-12-20T20:59:17.765Z,8.60
2022-12-20T21:01:45.143Z,8.60
2022-12-20T21:04:11.998Z,8.50
2022-12-20T21:06:41.696Z,8.50
2022-12-20T21:09:09.474Z,8.50
2022-12-20T21:11:37.141Z,8.50
2022-12-20T21:14:04.057Z,8.50
2022-12-20T21:16:30.963Z,8.50
2022-12-20T21:18:58.516Z,8.40
2022-12-20T21:21:25.784Z,8.40
2022-12-20T21:23:52.844Z,8.40
2022-12-20T21:26:20.541Z,8.40
2022-12-20T21:28:47.373Z,8.40
2022-12-20T21:31:16.015Z,8.40
2022-12-20T21:33:44.458Z,8.40
2022-12-20T21:36:12.783Z,8.40
2022-12-20T21:38:39.978Z,8.40
2022-12-20T21:41:08.164Z,8.30
2022-12-20T21:43:35.033Z,8.50
2022-12-20T21:46:02.015Z,8.40
2022-12-20T21:48:29.735Z,8.50
2022-12-20T21:51:04.645Z,8.50
2022-12-20T21:53:32.061Z,8.50
2022-12-20T21:55:59.803Z,8.50
2022-12-20T21:58:27.603Z,8.60
2022-12-20T22:00:55.466Z,8.60
2022-12-20T22:03:23.512Z,8.60
2022-12-20T22:05:51.511Z,8.60
2022-12-20T22:08:19.630Z,8.60
2022-12-20T22:10:46.754Z,8.60
2022-12-20T22:13:13.535Z,8.60
2022-12-20T22:15:40.744Z,8.70
2022-12-20T22:18:07.914Z,8.70
2022-12-20T22:20:35.178Z,8.80
2022-12-20T22:23:02.283Z,8.80
2022-12-20T22:25:30.089Z,8.90
2022-12-20T22:27:57.023Z,8.90
2022-12-20T22:30:23.734Z,9.00
2022-12-20T22:32:50.528Z,9.00
2022-12-20T22:35:22.446Z,9.00
2022-12-20T22:37:50.134Z,9.00
2022-12-20T22:40:16.982Z,9.00
2022-12-20T22:42:43.711Z,9.00
2022-12-20T22:45:10.612Z,9.00
2022-12-20T22:47:37.713Z,9.00
2022-12-20T22:50:04.846Z,9.00
2022-12-20T22:52:34.499Z,9.00
2022-12-20T22:55:01.251Z,9.00
2022-12-20T22:57:27.971Z,9.00
2022-12-20T22:59:58.683Z,9.00
2022-12-20T23:02:26.040Z,9.00
2022-12-20T23:04:53.362Z,9.00
2022-12-20T23:07:20.464Z,8.90
2022-12-20T23:09:47.325Z,8.90
2022-12-20T23:12:32.657Z,9.00
2022-12-20T23:15:18.272Z,8.90
2022-12-20T23:17:45.016Z,8.90
2022-12-20T23:20:30.808Z,9.00
2022-12-20T23:22:57.511Z,9.00
2022-12-20T23:25:25.505Z,8.90
2022-12-20T23:27:52.487Z,9.00
2022-12-20T23:30:21.019Z,9.00
2022-12-20T23:32:47.984Z,9.00
2022-12-20T23:35:15.577Z,9.10
2022-12-20T23:37:42.613Z,9.10
2022-12-20T23:40:10.039Z,9.10
2022-12-20T23:42:36.742Z,9.10
2022-12-20T23:45:03.644Z,9.10
2022-12-20T23:47:31.431Z,9.10
2022-12-20T23:49:58.173Z,9.20
2022-12-20T23:52:24.885Z,9.20
2022-12-20T23:54:51.658Z,9.10
2022-12-20T23:57:18.333Z,9.20
2022-12-20T23:59:45.066Z,9.10
